Chagrin Falls, OH (44022)

4:54 PM EST on February 08, 2016 (GMT -0500)
Moreland Hills | | Change Station
CLOSE
Current Station
Personal Weather Station
Location: Moreland Hills, OH
Elevation: 1096 ft
Nearby Weather Stations

Elev 1096 ft 41.44 °N, 81.44 °W | Updated 14 seconds ago

Snow
Snow
32.8 °F
Feels Like 33 °F
N
0.0
Wind Variable Wind from NW
Gusts 7.0 mph

Today
High -- | Low -- °F
--% Chance of Precip.
Yesterday
High -- | Low -- °F
Precip. -- in
Pressure 29.57 in
Visibility 1.0 miles
Clouds Overcast 400 ft
Windchill 33 °F
Dew Point 31 °F
Humidity 94%
Rainfall 0.00 in
Snow Depth Not available.
7:30 AM 5:49 PM
New Moon, 0% visible
METAR KCGF 082145Z 28012KT 1SM -SN BR OVC004 01/00 A2957
Pressure 29.57 in
Visibility 1.0 miles
Clouds Overcast 400 ft
Windchill 33 °F
Dew Point 31 °F
Humidity 94%
Rainfall 0.00 in
Snow Depth Not available.
7:30 AM 5:49 PM
New Moon, 0% visible
METAR KCGF 082145Z 28012KT 1SM -SN BR OVC004 01/00 A2957

10-Day Weather Forecast

Almanac

Astronomy

Feb. 08, 2016 Rise Set
Actual Time
Civil Twilight
Nautical Twilight
Astronomical Twilight
Moon
Length of Visible Light
Length of Day
Tomorrow will be .
, % of the Moon is Illuminated

Today's Extremes

State Highs State Lows

Community

WunderPhotos

Upload Photos

1,891,512 photos uploaded!

WunderBlog® & News

Nearby

Air Quality

  Air Quality AQ Index Pollutant
Not available.

Snow Depth

Station Depth Elevation

Earthquake Activity

City Distance Mag. Time & Date
Minimum magnitude displayed is 2.5.

Coastal Water Temperatures

Place Temperature

Stations

Nearby Weather Stations

Station Location Temp. Windchill Dew Point Humidity Wind Precip. Elev Updated Type
                   

Watches & Warnings

There are currently no watches in effect.